sensor_id;sensor_type;location;lat;lon;timestamp;temperature;humidity
20856;DHT22;63058;49.424;8.420;2023-02-19T00:01:18;13.70;84.50
20856;DHT22;63058;49.424;8.420;2023-02-19T00:03:48;13.70;84.50
20856;DHT22;63058;49.424;8.420;2023-02-19T00:06:17;13.70;84.60
20856;DHT22;63058;49.424;8.420;2023-02-19T00:08:43;13.70;84.60
20856;DHT22;63058;49.424;8.420;2023-02-19T00:11:12;13.90;84.70
20856;DHT22;63058;49.424;8.420;2023-02-19T00:13:40;13.70;84.60
20856;DHT22;63058;49.424;8.420;2023-02-19T00:16:13;13.70;84.60
20856;DHT22;63058;49.424;8.420;2023-02-19T00:18:39;13.70;84.80
20856;DHT22;63058;49.424;8.420;2023-02-19T00:21:05;13.60;84.80
20856;DHT22;63058;49.424;8.420;2023-02-19T00:23:31;13.70;84.90
20856;DHT22;63058;49.424;8.420;2023-02-19T00:26:05;13.70;85.00
20856;DHT22;63058;49.424;8.420;2023-02-19T00:28:31;13.60;85.10
20856;DHT22;63058;49.424;8.420;2023-02-19T00:31:16;13.60;85.00
20856;DHT22;63058;49.424;8.420;2023-02-19T00:33:43;13.60;85.30
20856;DHT22;63058;49.424;8.420;2023-02-19T00:36:10;13.60;85.10
20856;DHT22;63058;49.424;8.420;2023-02-19T00:38:37;13.70;85.20
20856;DHT22;63058;49.424;8.420;2023-02-19T00:41:03;13.70;85.40
20856;DHT22;63058;49.424;8.420;2023-02-19T00:46:09;13.60;85.40
20856;DHT22;63058;49.424;8.420;2023-02-19T00:48:35;13.80;85.60
20856;DHT22;63058;49.424;8.420;2023-02-19T00:51:01;13.60;85.40
20856;DHT22;63058;49.424;8.420;2023-02-19T00:53:26;13.70;85.70
20856;DHT22;63058;49.424;8.420;2023-02-19T00:55:52;13.70;85.80
20856;DHT22;63058;49.424;8.420;2023-02-19T00:58:17;13.60;85.70
20856;DHT22;63058;49.424;8.420;2023-02-19T01:00:43;13.60;85.90
20856;DHT22;63058;49.424;8.420;2023-02-19T01:03:08;13.60;86.00
20856;DHT22;63058;49.424;8.420;2023-02-19T01:05:34;13.60;86.00
20856;DHT22;63058;49.424;8.420;2023-02-19T01:08:00;13.60;85.90
20856;DHT22;63058;49.424;8.420;2023-02-19T01:10:25;13.60;86.20
20856;DHT22;63058;49.424;8.420;2023-02-19T01:12:51;13.60;86.20
20856;DHT22;63058;49.424;8.420;2023-02-19T01:15:16;13.70;86.20
20856;DHT22;63058;49.424;8.420;2023-02-19T01:17:42;13.70;86.40
20856;DHT22;63058;49.424;8.420;2023-02-19T01:20:08;13.70;86.40
20856;DHT22;63058;49.424;8.420;2023-02-19T01:22:33;13.60;87.20
20856;DHT22;63058;49.424;8.420;2023-02-19T01:24:59;13.60;86.50
20856;DHT22;63058;49.424;8.420;2023-02-19T01:27:25;13.60;86.70
20856;DHT22;63058;49.424;8.420;2023-02-19T01:29:50;13.50;86.70
20856;DHT22;63058;49.424;8.420;2023-02-19T01:32:16;13.60;87.00
20856;DHT22;63058;49.424;8.420;2023-02-19T01:34:41;13.40;87.20
20856;DHT22;63058;49.424;8.420;2023-02-19T01:37:07;13.40;87.30
20856;DHT22;63058;49.424;8.420;2023-02-19T01:39:37;13.40;87.30
20856;DHT22;63058;49.424;8.420;2023-02-19T01:42:04;13.40;87.30
20856;DHT22;63058;49.424;8.420;2023-02-19T01:46:56;13.30;87.30
20856;DHT22;63058;49.424;8.420;2023-02-19T01:49:29;13.40;87.50
20856;DHT22;63058;49.424;8.420;2023-02-19T01:52:04;13.20;88.00
20856;DHT22;63058;49.424;8.420;2023-02-19T01:54:33;13.20;88.10
20856;DHT22;63058;49.424;8.420;2023-02-19T01:57:04;13.10;88.30
20856;DHT22;63058;49.424;8.420;2023-02-19T01:59:31;13.10;88.80
20856;DHT22;63058;49.424;8.420;2023-02-19T02:01:57;13.10;88.70
20856;DHT22;63058;49.424;8.420;2023-02-19T02:04:24;13.00;88.80
20856;DHT22;63058;49.424;8.420;2023-02-19T02:06:54;12.90;90.00
20856;DHT22;63058;49.424;8.420;2023-02-19T02:09:25;12.90;89.60
20856;DHT22;63058;49.424;8.420;2023-02-19T02:12:10;12.90;90.00
20856;DHT22;63058;49.424;8.420;2023-02-19T02:14:40;12.90;89.70
20856;DHT22;63058;49.424;8.420;2023-02-19T02:23:20;12.80;90.00
20856;DHT22;63058;49.424;8.420;2023-02-19T02:31:58;12.80;90.10
20856;DHT22;63058;49.424;8.420;2023-02-19T02:34:32;12.80;90.00
20856;DHT22;63058;49.424;8.420;2023-02-19T02:36:59;12.80;90.20
20856;DHT22;63058;49.424;8.420;2023-02-19T02:39:27;12.70;90.10
20856;DHT22;63058;49.424;8.420;2023-02-19T02:41:57;12.70;90.30
20856;DHT22;63058;49.424;8.420;2023-02-19T02:44:42;12.80;90.50
20856;DHT22;63058;49.424;8.420;2023-02-19T02:47:26;12.70;90.40
20856;DHT22;63058;49.424;8.420;2023-02-19T02:50:12;12.70;90.40
20856;DHT22;63058;49.424;8.420;2023-02-19T02:52:41;12.60;90.80
20856;DHT22;63058;49.424;8.420;2023-02-19T02:55:29;12.60;90.40
20856;DHT22;63058;49.424;8.420;2023-02-19T02:57:55;12.60;90.70
20856;DHT22;63058;49.424;8.420;2023-02-19T03:00:22;12.60;90.50
20856;DHT22;63058;49.424;8.420;2023-02-19T03:02:49;12.70;90.60
20856;DHT22;63058;49.424;8.420;2023-02-19T03:05:19;12.60;90.60
20856;DHT22;63058;49.424;8.420;2023-02-19T03:10:53;12.50;91.30
20856;DHT22;63058;49.424;8.420;2023-02-19T03:13:34;12.50;90.90
20856;DHT22;63058;49.424;8.420;2023-02-19T03:16:23;12.50;91.40
20856;DHT22;63058;49.424;8.420;2023-02-19T03:19:14;12.60;90.90
20856;DHT22;63058;49.424;8.420;2023-02-19T03:24:28;12.50;91.50
20856;DHT22;63058;49.424;8.420;2023-02-19T03:27:14;12.50;91.30
20856;DHT22;63058;49.424;8.420;2023-02-19T03:29:42;12.50;91.40
20856;DHT22;63058;49.424;8.420;2023-02-19T03:32:24;12.50;91.60
20856;DHT22;63058;49.424;8.420;2023-02-19T03:34:58;12.50;91.80
20856;DHT22;63058;49.424;8.420;2023-02-19T03:37:28;12.50;91.40
20856;DHT22;63058;49.424;8.420;2023-02-19T03:39:54;12.50;91.40
20856;DHT22;63058;49.424;8.420;2023-02-19T03:42:55;12.40;91.40
20856;DHT22;63058;49.424;8.420;2023-02-19T03:50:40;12.40;91.50
20856;DHT22;63058;49.424;8.420;2023-02-19T03:53:21;12.40;91.70
20856;DHT22;63058;49.424;8.420;2023-02-19T03:58:56;12.40;91.80
20856;DHT22;63058;49.424;8.420;2023-02-19T04:04:33;12.40;91.90
20856;DHT22;63058;49.424;8.420;2023-02-19T04:07:00;12.40;91.80
20856;DHT22;63058;49.424;8.420;2023-02-19T04:09:30;12.40;91.60
20856;DHT22;63058;49.424;8.420;2023-02-19T04:11:59;12.50;91.80
20856;DHT22;63058;49.424;8.420;2023-02-19T04:14:35;12.40;91.80
20856;DHT22;63058;49.424;8.420;2023-02-19T04:17:07;12.40;92.20
20856;DHT22;63058;49.424;8.420;2023-02-19T04:19:36;12.40;91.90
20856;DHT22;63058;49.424;8.420;2023-02-19T04:22:05;12.40;92.10
20856;DHT22;63058;49.424;8.420;2023-02-19T04:24:38;12.40;92.10
20856;DHT22;63058;49.424;8.420;2023-02-19T04:27:06;12.50;92.10
20856;DHT22;63058;49.424;8.420;2023-02-19T04:29:33;12.40;91.90
20856;DHT22;63058;49.424;8.420;2023-02-19T04:31:58;12.50;92.00
20856;DHT22;63058;49.424;8.420;2023-02-19T04:34:24;12.50;92.00
20856;DHT22;63058;49.424;8.420;2023-02-19T04:36:49;12.60;91.90
20856;DHT22;63058;49.424;8.420;2023-02-19T04:39:15;12.50;92.20
20856;DHT22;63058;49.424;8.420;2023-02-19T04:41:41;12.50;91.90
20856;DHT22;63058;49.424;8.420;2023-02-19T04:44:06;12.70;92.00
20856;DHT22;63058;49.424;8.420;2023-02-19T04:48:57;12.50;92.10
20856;DHT22;63058;49.424;8.420;2023-02-19T04:51:23;12.50;92.00
20856;DHT22;63058;49.424;8.420;2023-02-19T04:53:49;12.50;92.00
20856;DHT22;63058;49.424;8.420;2023-02-19T04:56:15;12.60;92.00
20856;DHT22;63058;49.424;8.420;2023-02-19T04:58:42;12.50;92.10
20856;DHT22;63058;49.424;8.420;2023-02-19T05:01:08;12.50;92.30
20856;DHT22;63058;49.424;8.420;2023-02-19T05:03:34;12.50;91.90
20856;DHT22;63058;49.424;8.420;2023-02-19T05:06:04;12.50;92.10
20856;DHT22;63058;49.424;8.420;2023-02-19T05:08:30;12.50;92.10
20856;DHT22;63058;49.424;8.420;2023-02-19T05:10:58;12.40;92.20
20856;DHT22;63058;49.424;8.420;2023-02-19T05:13:23;12.40;92.30
20856;DHT22;63058;49.424;8.420;2023-02-19T05:15:57;12.40;92.30
20856;DHT22;63058;49.424;8.420;2023-02-19T05:18:23;12.40;92.70
20856;DHT22;63058;49.424;8.420;2023-02-19T05:20:49;12.50;92.40
20856;DHT22;63058;49.424;8.420;2023-02-19T05:23:15;12.40;92.50
20856;DHT22;63058;49.424;8.420;2023-02-19T05:25:40;12.40;92.50
20856;DHT22;63058;49.424;8.420;2023-02-19T05:28:06;12.40;92.60
20856;DHT22;63058;49.424;8.420;2023-02-19T05:30:49;12.40;92.60
20856;DHT22;63058;49.424;8.420;2023-02-19T05:33:16;12.40;92.60
20856;DHT22;63058;49.424;8.420;2023-02-19T05:35:43;12.40;92.60
20856;DHT22;63058;49.424;8.420;2023-02-19T05:38:10;12.40;92.90
20856;DHT22;63058;49.424;8.420;2023-02-19T05:40:36;12.40;92.50
20856;DHT22;63058;49.424;8.420;2023-02-19T05:43:02;12.40;92.60
20856;DHT22;63058;49.424;8.420;2023-02-19T05:45:27;12.30;92.60
20856;DHT22;63058;49.424;8.420;2023-02-19T05:47:53;12.30;92.60
20856;DHT22;63058;49.424;8.420;2023-02-19T05:50:19;12.30;92.60
20856;DHT22;63058;49.424;8.420;2023-02-19T05:52:44;12.30;92.70
20856;DHT22;63058;49.424;8.420;2023-02-19T05:55:10;12.40;92.80
20856;DHT22;63058;49.424;8.420;2023-02-19T05:57:40;12.40;92.90
20856;DHT22;63058;49.424;8.420;2023-02-19T06:00:11;12.30;93.10
20856;DHT22;63058;49.424;8.420;2023-02-19T06:02:37;12.20;93.10
20856;DHT22;63058;49.424;8.420;2023-02-19T06:05:03;12.20;93.30
20856;DHT22;63058;49.424;8.420;2023-02-19T06:07:30;12.30;93.30
20856;DHT22;63058;49.424;8.420;2023-02-19T06:09:56;12.30;93.30
20856;DHT22;63058;49.424;8.420;2023-02-19T06:12:21;12.30;93.30
20856;DHT22;63058;49.424;8.420;2023-02-19T06:14:47;12.20;93.30
20856;DHT22;63058;49.424;8.420;2023-02-19T06:17:13;12.30;93.30
20856;DHT22;63058;49.424;8.420;2023-02-19T06:19:39;12.40;93.30
20856;DHT22;63058;49.424;8.420;2023-02-19T06:22:04;12.40;93.20
20856;DHT22;63058;49.424;8.420;2023-02-19T06:24:30;12.30;93.10
20856;DHT22;63058;49.424;8.420;2023-02-19T06:26:56;12.30;93.10
20856;DHT22;63058;49.424;8.420;2023-02-19T06:29:21;12.40;93.20
20856;DHT22;63058;49.424;8.420;2023-02-19T06:31:47;12.30;93.10
20856;DHT22;63058;49.424;8.420;2023-02-19T06:34:13;12.40;93.10
20856;DHT22;63058;49.424;8.420;2023-02-19T06:36:38;12.30;93.00
20856;DHT22;63058;49.424;8.420;2023-02-19T06:39:04;12.30;93.00
20856;DHT22;63058;49.424;8.420;2023-02-19T06:41:30;12.40;93.00
20856;DHT22;63058;49.424;8.420;2023-02-19T06:43:57;12.40;93.10
20856;DHT22;63058;49.424;8.420;2023-02-19T06:46:23;12.40;93.00
20856;DHT22;63058;49.424;8.420;2023-02-19T06:48:48;12.40;93.00
20856;DHT22;63058;49.424;8.420;2023-02-19T06:51:17;12.40;92.90
20856;DHT22;63058;49.424;8.420;2023-02-19T06:53:44;12.50;92.90
20856;DHT22;63058;49.424;8.420;2023-02-19T06:56:40;12.60;92.80
20856;DHT22;63058;49.424;8.420;2023-02-19T06:59:08;12.60;92.70
20856;DHT22;63058;49.424;8.420;2023-02-19T07:01:35;12.70;92.60
20856;DHT22;63058;49.424;8.420;2023-02-19T07:04:02;12.70;92.60
20856;DHT22;63058;49.424;8.420;2023-02-19T07:06:28;12.70;92.50
20856;DHT22;63058;49.424;8.420;2023-02-19T07:08:55;12.80;92.40
20856;DHT22;63058;49.424;8.420;2023-02-19T07:11:21;12.80;92.30
20856;DHT22;63058;49.424;8.420;2023-02-19T07:13:47;12.90;92.30
20856;DHT22;63058;49.424;8.420;2023-02-19T07:16:13;13.00;92.30
20856;DHT22;63058;49.424;8.420;2023-02-19T07:18:40;13.00;92.20
20856;DHT22;63058;49.424;8.420;2023-02-19T07:21:11;13.10;92.20
20856;DHT22;63058;49.424;8.420;2023-02-19T07:23:37;13.00;92.10
20856;DHT22;63058;49.424;8.420;2023-02-19T07:26:03;13.10;92.10
20856;DHT22;63058;49.424;8.420;2023-02-19T07:28:29;13.10;92.10
20856;DHT22;63058;49.424;8.420;2023-02-19T07:30:59;13.10;92.10
20856;DHT22;63058;49.424;8.420;2023-02-19T07:33:25;13.10;92.00
20856;DHT22;63058;49.424;8.420;2023-02-19T07:35:51;13.20;92.10
20856;DHT22;63058;49.424;8.420;2023-02-19T07:38:18;13.30;92.10
20856;DHT22;63058;49.424;8.420;2023-02-19T07:40:51;13.20;92.00
20856;DHT22;63058;49.424;8.420;2023-02-19T07:43:17;13.20;91.90
20856;DHT22;63058;49.424;8.420;2023-02-19T07:45:42;13.20;91.90
20856;DHT22;63058;49.424;8.420;2023-02-19T07:48:08;13.20;91.80
20856;DHT22;63058;49.424;8.420;2023-02-19T07:50:34;13.20;91.70
20856;DHT22;63058;49.424;8.420;2023-02-19T07:52:59;13.30;92.10
20856;DHT22;63058;49.424;8.420;2023-02-19T07:55:25;13.20;91.70
20856;DHT22;63058;49.424;8.420;2023-02-19T07:57:50;13.30;91.70
20856;DHT22;63058;49.424;8.420;2023-02-19T08:00:16;13.30;91.70
20856;DHT22;63058;49.424;8.420;2023-02-19T08:02:43;13.30;91.60
20856;DHT22;63058;49.424;8.420;2023-02-19T08:05:38;13.30;91.70
20856;DHT22;63058;49.424;8.420;2023-02-19T08:08:12;13.40;91.70
20856;DHT22;63058;49.424;8.420;2023-02-19T08:10:39;13.30;91.60
20856;DHT22;63058;49.424;8.420;2023-02-19T08:13:23;13.40;91.70
20856;DHT22;63058;49.424;8.420;2023-02-19T08:16:08;13.40;91.60
20856;DHT22;63058;49.424;8.420;2023-02-19T08:18:34;13.50;91.60
20856;DHT22;63058;49.424;8.420;2023-02-19T08:21:00;13.50;91.40
20856;DHT22;63058;49.424;8.420;2023-02-19T08:23:26;13.60;91.40
20856;DHT22;63058;49.424;8.420;2023-02-19T08:25:55;13.60;91.40
20856;DHT22;63058;49.424;8.420;2023-02-19T08:28:21;13.60;91.30
20856;DHT22;63058;49.424;8.420;2023-02-19T08:30:47;13.80;91.10
20856;DHT22;63058;49.424;8.420;2023-02-19T08:33:16;13.80;91.20
20856;DHT22;63058;49.424;8.420;2023-02-19T08:35:42;13.80;91.10
20856;DHT22;63058;49.424;8.420;2023-02-19T08:38:09;13.80;91.00
20856;DHT22;63058;49.424;8.420;2023-02-19T08:40:37;13.90;91.10
20856;DHT22;63058;49.424;8.420;2023-02-19T08:45:29;14.00;91.00
20856;DHT22;63058;49.424;8.420;2023-02-19T08:47:55;14.00;90.90
20856;DHT22;63058;49.424;8.420;2023-02-19T08:50:20;14.10;90.90
20856;DHT22;63058;49.424;8.420;2023-02-19T08:52:46;14.20;91.20
20856;DHT22;63058;49.424;8.420;2023-02-19T08:55:12;14.30;90.70
20856;DHT22;63058;49.424;8.420;2023-02-19T08:57:38;14.40;90.50
20856;DHT22;63058;49.424;8.420;2023-02-19T09:00:05;14.30;90.60
20856;DHT22;63058;49.424;8.420;2023-02-19T09:02:31;14.40;90.30
20856;DHT22;63058;49.424;8.420;2023-02-19T09:04:57;14.50;90.50
20856;DHT22;63058;49.424;8.420;2023-02-19T09:07:22;14.60;90.60
20856;DHT22;63058;49.424;8.420;2023-02-19T09:09:48;14.70;90.70
20856;DHT22;63058;49.424;8.420;2023-02-19T09:12:14;14.90;90.40
20856;DHT22;63058;49.424;8.420;2023-02-19T09:14:40;14.90;90.10
20856;DHT22;63058;49.424;8.420;2023-02-19T09:17:06;15.10;88.90
20856;DHT22;63058;49.424;8.420;2023-02-19T09:19:32;15.20;88.30
20856;DHT22;63058;49.424;8.420;2023-02-19T09:21:58;15.20;88.30
20856;DHT22;63058;49.424;8.420;2023-02-19T09:24:24;15.30;87.70
20856;DHT22;63058;49.424;8.420;2023-02-19T09:26:51;15.30;86.70
20856;DHT22;63058;49.424;8.420;2023-02-19T09:29:18;15.40;87.00
20856;DHT22;63058;49.424;8.420;2023-02-19T09:31:44;15.40;86.60
20856;DHT22;63058;49.424;8.420;2023-02-19T09:34:09;15.50;86.50
20856;DHT22;63058;49.424;8.420;2023-02-19T09:36:36;15.50;86.60
20856;DHT22;63058;49.424;8.420;2023-02-19T09:39:03;15.40;86.70
20856;DHT22;63058;49.424;8.420;2023-02-19T09:41:42;15.40;86.90
20856;DHT22;63058;49.424;8.420;2023-02-19T09:44:15;15.40;86.50
20856;DHT22;63058;49.424;8.420;2023-02-19T09:46:47;15.50;86.30
20856;DHT22;63058;49.424;8.420;2023-02-19T09:49:17;15.50;85.40
20856;DHT22;63058;49.424;8.420;2023-02-19T09:51:47;15.40;84.90
20856;DHT22;63058;49.424;8.420;2023-02-19T09:54:21;15.30;84.80
20856;DHT22;63058;49.424;8.420;2023-02-19T09:56:47;15.20;85.00
20856;DHT22;63058;49.424;8.420;2023-02-19T09:59:22;15.10;85.20
20856;DHT22;63058;49.424;8.420;2023-02-19T10:01:56;15.00;85.60
20856;DHT22;63058;49.424;8.420;2023-02-19T10:04:23;15.00;86.00
20856;DHT22;63058;49.424;8.420;2023-02-19T10:06:50;14.90;86.20
20856;DHT22;63058;49.424;8.420;2023-02-19T10:09:24;14.90;86.40
20856;DHT22;63058;49.424;8.420;2023-02-19T10:11:53;14.90;86.40
20856;DHT22;63058;49.424;8.420;2023-02-19T10:14:36;15.00;86.70
20856;DHT22;63058;49.424;8.420;2023-02-19T10:17:03;15.00;86.60
20856;DHT22;63058;49.424;8.420;2023-02-19T10:19:31;15.10;87.00
20856;DHT22;63058;49.424;8.420;2023-02-19T10:21:57;15.30;86.50
20856;DHT22;63058;49.424;8.420;2023-02-19T10:24:26;15.30;86.20
20856;DHT22;63058;49.424;8.420;2023-02-19T10:26:52;15.40;86.10
20856;DHT22;63058;49.424;8.420;2023-02-19T10:29:19;15.50;86.10
20856;DHT22;63058;49.424;8.420;2023-02-19T10:31:46;15.60;85.10
20856;DHT22;63058;49.424;8.420;2023-02-19T10:34:22;15.60;83.80
20856;DHT22;63058;49.424;8.420;2023-02-19T10:36:51;15.60;83.80
20856;DHT22;63058;49.424;8.420;2023-02-19T10:41:45;15.80;83.20
20856;DHT22;63058;49.424;8.420;2023-02-19T10:44:25;15.70;83.00
20856;DHT22;63058;49.424;8.420;2023-02-19T10:46:53;15.80;83.30
20856;DHT22;63058;49.424;8.420;2023-02-19T10:49:22;15.80;82.30
20856;DHT22;63058;49.424;8.420;2023-02-19T10:51:53;15.90;83.10
20856;DHT22;63058;49.424;8.420;2023-02-19T10:54:27;15.90;82.60
20856;DHT22;63058;49.424;8.420;2023-02-19T10:59:55;15.90;82.10
20856;DHT22;63058;49.424;8.420;2023-02-19T11:02:27;16.00;81.60
20856;DHT22;63058;49.424;8.420;2023-02-19T11:07:54;16.20;80.40
20856;DHT22;63058;49.424;8.420;2023-02-19T11:10:35;16.40;81.60
20856;DHT22;63058;49.424;8.420;2023-02-19T11:13:05;16.50;81.00
20856;DHT22;63058;49.424;8.420;2023-02-19T11:15:36;16.60;80.20
20856;DHT22;63058;49.424;8.420;2023-02-19T11:21:03;16.70;78.80
20856;DHT22;63058;49.424;8.420;2023-02-19T11:23:37;16.70;77.70
20856;DHT22;63058;49.424;8.420;2023-02-19T11:26:20;16.70;77.40
20856;DHT22;63058;49.424;8.420;2023-02-19T11:29:40;16.70;76.10
20856;DHT22;63058;49.424;8.420;2023-02-19T11:31:47;16.70;77.30
20856;DHT22;63058;49.424;8.420;2023-02-19T11:37:15;16.70;76.00
20856;DHT22;63058;49.424;8.420;2023-02-19T11:39:49;16.60;76.00
20856;DHT22;63058;49.424;8.420;2023-02-19T11:48:01;16.60;76.20
20856;DHT22;63058;49.424;8.420;2023-02-19T11:50:45;16.60;76.20
20856;DHT22;63058;49.424;8.420;2023-02-19T11:53:34;16.60;76.40
20856;DHT22;63058;49.424;8.420;2023-02-19T11:56:31;16.60;76.00
20856;DHT22;63058;49.424;8.420;2023-02-19T11:59:03;16.70;75.40
20856;DHT22;63058;49.424;8.420;2023-02-19T12:01:59;16.70;76.50
20856;DHT22;63058;49.424;8.420;2023-02-19T12:04:46;16.70;75.40
20856;DHT22;63058;49.424;8.420;2023-02-19T12:29:54;17.20;70.80
20856;DHT22;63058;49.424;8.420;2023-02-19T12:40:54;16.80;71.30
20856;DHT22;63058;49.424;8.420;2023-02-19T12:43:23;16.70;70.80
20856;DHT22;63058;49.424;8.420;2023-02-19T12:51:00;16.50;71.80
20856;DHT22;63058;49.424;8.420;2023-02-19T12:53:47;16.50;71.10
20856;DHT22;63058;49.424;8.420;2023-02-19T12:56:20;16.50;70.20
20856;DHT22;63058;49.424;8.420;2023-02-19T12:58:54;16.50;71.80
20856;DHT22;63058;49.424;8.420;2023-02-19T13:01:28;16.50;72.10
20856;DHT22;63058;49.424;8.420;2023-02-19T13:04:15;16.60;72.40
20856;DHT22;63058;49.424;8.420;2023-02-19T13:06:49;16.60;72.40
20856;DHT22;63058;49.424;8.420;2023-02-19T13:09:36;16.70;72.90
20856;DHT22;63058;49.424;8.420;2023-02-19T13:12:19;16.70;72.90
20856;DHT22;63058;49.424;8.420;2023-02-19T13:14:50;16.70;72.30
20856;DHT22;63058;49.424;8.420;2023-02-19T13:20:00;16.70;70.30
20856;DHT22;63058;49.424;8.420;2023-02-19T13:22:33;16.70;70.50
20856;DHT22;63058;49.424;8.420;2023-02-19T13:25:20;16.70;70.50
20856;DHT22;63058;49.424;8.420;2023-02-19T13:28:11;16.70;70.50
20856;DHT22;63058;49.424;8.420;2023-02-19T13:30:59;16.70;70.70
20856;DHT22;63058;49.424;8.420;2023-02-19T13:36:19;16.70;70.50
20856;DHT22;63058;49.424;8.420;2023-02-19T13:38:48;16.70;70.70
20856;DHT22;63058;49.424;8.420;2023-02-19T13:41:32;16.80;70.70
20856;DHT22;63058;49.424;8.420;2023-02-19T13:44:04;16.80;70.00
20856;DHT22;63058;49.424;8.420;2023-02-19T13:46:43;16.80;70.10
20856;DHT22;63058;49.424;8.420;2023-02-19T13:51:55;16.80;70.30
20856;DHT22;63058;49.424;8.420;2023-02-19T13:56:51;16.80;70.20
20856;DHT22;63058;49.424;8.420;2023-02-19T13:59:36;16.80;69.00
20856;DHT22;63058;49.424;8.420;2023-02-19T14:02:09;16.70;68.40
20856;DHT22;63058;49.424;8.420;2023-02-19T14:09:43;16.60;69.40
20856;DHT22;63058;49.424;8.420;2023-02-19T14:17:42;16.50;69.80
20856;DHT22;63058;49.424;8.420;2023-02-19T14:22:45;16.50;68.90
20856;DHT22;63058;49.424;8.420;2023-02-19T14:25:48;16.60;69.20
20856;DHT22;63058;49.424;8.420;2023-02-19T14:30:55;16.40;68.70
20856;DHT22;63058;49.424;8.420;2023-02-19T14:33:32;16.30;68.30
20856;DHT22;63058;49.424;8.420;2023-02-19T14:36:05;16.30;68.10
20856;DHT22;63058;49.424;8.420;2023-02-19T14:38:43;16.20;68.30
20856;DHT22;63058;49.424;8.420;2023-02-19T14:41:11;16.10;68.60
20856;DHT22;63058;49.424;8.420;2023-02-19T14:43:40;16.00;68.80
20856;DHT22;63058;49.424;8.420;2023-02-19T14:46:31;16.00;69.40
20856;DHT22;63058;49.424;8.420;2023-02-19T14:49:05;16.00;69.60
20856;DHT22;63058;49.424;8.420;2023-02-19T14:51:42;16.00;70.00
20856;DHT22;63058;49.424;8.420;2023-02-19T14:54:19;16.00;70.50
20856;DHT22;63058;49.424;8.420;2023-02-19T14:56:52;16.00;70.50
20856;DHT22;63058;49.424;8.420;2023-02-19T15:01:47;16.00;71.10
20856;DHT22;63058;49.424;8.420;2023-02-19T15:04:22;16.00;71.20
20856;DHT22;63058;49.424;8.420;2023-02-19T15:06:49;16.00;71.30
20856;DHT22;63058;49.424;8.420;2023-02-19T15:09:18;16.00;71.30
20856;DHT22;63058;49.424;8.420;2023-02-19T15:11:51;16.00;71.40
20856;DHT22;63058;49.424;8.420;2023-02-19T15:14:22;16.10;71.60
20856;DHT22;63058;49.424;8.420;2023-02-19T15:16:56;16.00;71.60
20856;DHT22;63058;49.424;8.420;2023-02-19T15:19:34;16.10;71.30
20856;DHT22;63058;49.424;8.420;2023-02-19T15:22:04;16.00;71.30
20856;DHT22;63058;49.424;8.420;2023-02-19T15:24:36;16.00;71.40
20856;DHT22;63058;49.424;8.420;2023-02-19T15:27:20;15.80;71.00
20856;DHT22;63058;49.424;8.420;2023-02-19T15:29:51;16.00;71.50
20856;DHT22;63058;49.424;8.420;2023-02-19T15:32:20;16.00;71.60
20856;DHT22;63058;49.424;8.420;2023-02-19T15:34:58;15.90;71.70
20856;DHT22;63058;49.424;8.420;2023-02-19T15:37:29;15.90;71.70
20856;DHT22;63058;49.424;8.420;2023-02-19T15:39:57;15.80;71.70
20856;DHT22;63058;49.424;8.420;2023-02-19T15:42:29;15.80;71.80
20856;DHT22;63058;49.424;8.420;2023-02-19T15:45:17;15.80;71.90
20856;DHT22;63058;49.424;8.420;2023-02-19T15:48:14;15.70;72.10
20856;DHT22;63058;49.424;8.420;2023-02-19T15:50:46;15.60;72.10
20856;DHT22;63058;49.424;8.420;2023-02-19T15:53:25;15.60;72.40
20856;DHT22;63058;49.424;8.420;2023-02-19T16:01:34;15.20;74.20
20856;DHT22;63058;49.424;8.420;2023-02-19T16:04:02;15.10;75.30
20856;DHT22;63058;49.424;8.420;2023-02-19T16:06:50;15.00;75.80
20856;DHT22;63058;49.424;8.420;2023-02-19T16:09:33;14.90;76.60
20856;DHT22;63058;49.424;8.420;2023-02-19T16:12:02;14.70;77.30
20856;DHT22;63058;49.424;8.420;2023-02-19T16:14:29;14.60;78.00
20856;DHT22;63058;49.424;8.420;2023-02-19T16:17:16;14.50;78.60
20856;DHT22;63058;49.424;8.420;2023-02-19T16:19:58;14.40;79.30
20856;DHT22;63058;49.424;8.420;2023-02-19T16:22:28;14.30;79.80
20856;DHT22;63058;49.424;8.420;2023-02-19T16:25:01;14.30;79.90
20856;DHT22;63058;49.424;8.420;2023-02-19T16:27:36;14.20;79.90
20856;DHT22;63058;49.424;8.420;2023-02-19T16:30:30;14.20;80.00
20856;DHT22;63058;49.424;8.420;2023-02-19T16:36:34;14.10;79.90
20856;DHT22;63058;49.424;8.420;2023-02-19T16:42:18;14.10;80.10
20856;DHT22;63058;49.424;8.420;2023-02-19T16:46:50;14.00;79.70
20856;DHT22;63058;49.424;8.420;2023-02-19T16:49:17;14.00;79.70
20856;DHT22;63058;49.424;8.420;2023-02-19T16:51:44;14.00;79.70
20856;DHT22;63058;49.424;8.420;2023-02-19T16:54:10;14.00;79.90
20856;DHT22;63058;49.424;8.420;2023-02-19T16:56:36;14.00;80.00
20856;DHT22;63058;49.424;8.420;2023-02-19T16:59:02;13.90;80.40
20856;DHT22;63058;49.424;8.420;2023-02-19T17:01:28;14.00;80.50
20856;DHT22;63058;49.424;8.420;2023-02-19T17:04:14;13.90;80.30
20856;DHT22;63058;49.424;8.420;2023-02-19T17:06:40;13.90;80.60
20856;DHT22;63058;49.424;8.420;2023-02-19T17:09:07;13.90;80.50
20856;DHT22;63058;49.424;8.420;2023-02-19T17:11:33;13.80;80.50
20856;DHT22;63058;49.424;8.420;2023-02-19T17:13:59;14.00;80.80
20856;DHT22;63058;49.424;8.420;2023-02-19T17:16:30;13.80;80.70
20856;DHT22;63058;49.424;8.420;2023-02-19T17:18:56;13.80;80.90
20856;DHT22;63058;49.424;8.420;2023-02-19T17:21:28;13.90;81.10
20856;DHT22;63058;49.424;8.420;2023-02-19T17:23:54;13.70;81.00
20856;DHT22;63058;49.424;8.420;2023-02-19T17:26:26;13.70;81.20
20856;DHT22;63058;49.424;8.420;2023-02-19T17:28:54;13.70;81.30
20856;DHT22;63058;49.424;8.420;2023-02-19T17:31:20;13.60;81.10
20856;DHT22;63058;49.424;8.420;2023-02-19T17:33:46;13.60;81.40
20856;DHT22;63058;49.424;8.420;2023-02-19T17:36:17;13.60;81.50
20856;DHT22;63058;49.424;8.420;2023-02-19T17:38:45;13.60;81.70
20856;DHT22;63058;49.424;8.420;2023-02-19T17:41:10;13.60;81.80
20856;DHT22;63058;49.424;8.420;2023-02-19T17:43:36;13.50;81.70
20856;DHT22;63058;49.424;8.420;2023-02-19T17:46:02;13.60;81.90
20856;DHT22;63058;49.424;8.420;2023-02-19T17:48:28;13.40;81.80
20856;DHT22;63058;49.424;8.420;2023-02-19T17:50:54;13.50;82.00
20856;DHT22;63058;49.424;8.420;2023-02-19T17:53:20;13.50;82.10
20856;DHT22;63058;49.424;8.420;2023-02-19T17:55:46;13.50;82.10
20856;DHT22;63058;49.424;8.420;2023-02-19T17:58:12;13.50;82.30
20856;DHT22;63058;49.424;8.420;2023-02-19T18:00:44;13.50;82.20
20856;DHT22;63058;49.424;8.420;2023-02-19T18:03:09;13.50;82.30
20856;DHT22;63058;49.424;8.420;2023-02-19T18:05:35;13.50;82.40
20856;DHT22;63058;49.424;8.420;2023-02-19T18:08:01;13.50;82.30
20856;DHT22;63058;49.424;8.420;2023-02-19T18:10:36;13.50;82.50